Latest Weather Observations for Warburton

IDW60801

Issued at 10:32 pm WST Monday 2 March 2015 (issued every 30 minutes, with the page automatically refreshed every 10 minutes)

About weather observations | Map of weather stations | Latest weather observations for WA | Other Formats
Station Details ID: 013011 Name: WARBURTON AIRFIELD Lat: -26.13 Lon: 126.58 Height: 459.0 m
Data from the previous 72 hours. | See also: Recent months at Warburton
Date/Time
WST
Temp
°C
App
Temp
°C
Dew
Point
Rel
Hum
%
Delta-T
°C
Wind Press
QNH
hPa
Press
MSL
hPa
Rain
since 9 am
mm
Dir
 
Spd
km/h
Gust
km/h
Spd
kts
Gust
kts
02/10:30pm 22.3 21.4 19.1 82 2.1 SSW 22 33 12 18 1014.0 - 2.4
02/10:00pm 23.5 23.4 19.6 79 2.5 SSE 19 28 10 15 1013.7 - 2.4
02/09:30pm 23.3 23.5 20.1 82 2.1 SSE 19 24 10 13 1014.2 - 2.4
02/09:00pm 23.6 23.9 20.3 82 2.2 SE 19 24 10 13 1014.7 1011.6 2.2
02/08:30pm 25.6 26.9 19.3 68 4.1 ESE 11 15 6 8 1014.6 - 1.0
02/08:00pm 27.4 26.3 17.3 54 6.5 SE 19 28 10 15 1013.4 - 0.8
02/07:30pm 27.7 27.5 17.5 53 6.5 SSE 15 20 8 11 1012.5 - 0.8
02/07:00pm 27.7 26.9 18.1 56 6.2 SE 19 28 10 15 1011.5 - 0.8
02/06:30pm 27.8 27.0 18.5 57 6.1 E 20 28 11 15 1011.5 - 0.8
02/06:00pm 28.9 28.0 17.7 50 7.2 SE 19 24 10 13 1010.2 1007.1 0.8
02/05:30pm 29.6 29.1 17.8 49 7.6 SE 17 24 9 13 1009.6 - 0.8
02/05:00pm 29.6 28.5 17.8 49 7.6 SSE 20 26 11 14 1008.8 - 0.8
02/04:30pm 29.1 29.1 19.7 57 6.2 SSE 19 24 10 13 1008.5 - 0.8
02/04:00pm 27.7 27.2 19.0 59 5.7 SSW 20 28 11 15 1009.0 - 0.8
02/03:59pm 27.8 27.3 19.1 59 5.7 SSW 20 28 11 15 1009.0 - 0.8
02/03:30pm 32.8 30.0 15.3 34 11.1 SSW 24 32 13 17 1008.3 - 0.4
02/03:00pm 33.7 29.9 15.7 34 11.5 SSW 30 39 16 21 1007.3 1004.2 0.4
02/02:30pm 35.0 32.9 16.3 32 12.1 SSW 22 33 12 18 1007.4 - 0.4
02/02:00pm 34.4 32.9 16.3 34 11.7 SSW 19 28 10 15 1007.9 - 0.4
02/01:30pm 34.8 32.7 17.1 35 11.5 S 24 39 13 21 1007.4 - 0.4
02/01:00pm 33.3 33.8 20.1 45 8.9 SW 17 20 9 11 1007.8 - 0.2
02/12:31pm 33.3 30.7 17.9 40 10.1 W 28 46 15 25 1008.3 - 0.0
02/12:30pm 35.7 33.9 16.9 32 12.3 W 22 35 12 19 1008.1 - 0.0
02/12:00pm 36.1 34.0 16.3 31 12.8 SW 22 32 12 17 1008.2 1005.1 0.0
02/11:30am 37.2 35.1 16.2 29 13.6 W 22 30 12 16 1008.6 - 0.0
02/11:00am 36.7 35.0 15.8 29 13.5 WNW 19 28 10 15 1009.1 - 0.0
02/10:30am 36.0 35.2 15.2 29 13.3 WNW 13 20 7 11 1009.5 - 0.0
02/10:00am 34.7 34.8 15.6 32 12.2 W 9 15 5 8 1010.0 - 0.0
02/09:30am 33.4 34.0 15.8 34 11.2 WNW 7 13 4 7 1010.4 - 0.0
02/09:00am 32.4 33.4 15.4 36 10.8 NW 4 11 2 6 1010.5 1007.4 0.2
02/08:30am 31.0 32.3 16.2 41 9.4 NNE 4 7 2 4 1010.4 - 0.2
02/08:00am 29.4 30.2 15.9 44 8.5 ESE 6 9 3 5 1010.4 - 0.2
02/07:30am 27.8 28.5 16.1 49 7.4 SSE 7 11 4 6 1010.1 - 0.2
02/07:00am 26.9 27.3 16.2 52 6.7 SE 9 15 5 8 1009.4 - 0.2
02/06:30am 25.6 25.2 16.2 56 5.9 SSW 13 19 7 10 1009.6 - 0.0
02/06:00am 24.6 25.8 16.8 62 4.9 SSE 6 7 3 4 1009.0 1005.9 0.0
02/05:30am 24.3 25.2 16.6 62 4.8 ESE 7 9 4 5 1008.7 - 0.0
02/05:00am 24.6 25.4 16.3 60 5.2 SSE 7 9 4 5 1008.5 - 0.0
02/04:30am 25.0 25.3 15.9 57 5.6 E 9 13 5 7 1008.2 - 0.0
02/04:00am 25.1 25.7 15.7 56 5.8 ESE 7 11 4 6 1008.2 - 0.0
02/03:30am 25.4 25.6 15.7 55 6.0 ESE 9 17 5 9 1008.1 - 0.0
02/03:00am 25.8 25.3 15.8 54 6.2 ESE 13 17 7 9 1008.3 1005.2 0.0
02/02:30am 25.6 25.6 16.2 56 5.9 ESE 11 17 6 9 1008.3 - 0.0
02/02:00am 25.7 25.8 16.5 56 5.8 ESE 11 13 6 7 1008.5 - 0.0
02/01:30am 25.8 25.9 16.6 56 5.8 ESE 11 15 6 8 1008.9 - 0.0
02/01:00am 26.2 26.0 16.7 56 6.0 ESE 13 19 7 10 1009.2 - 0.0
02/12:30am 26.4 26.4 17.2 57 5.9 SE 13 17 7 9 1009.7 - 0.0
02/12:00am 26.4 27.0 17.7 58 5.6 SE 11 19 6 10 1010.1 1007.0 0.0
 
Date/Time
WST
Temp
°C
App
Temp
°C
Dew
Point
Rel
Hum
%
Delta-T
°C
Wind Press
QNH
hPa
Press
MSL
hPa
Rain
since 9 am
mm
Dir
 
Spd
km/h
Gust
km/h
Spd
kts
Gust
kts
01/11:30pm 26.4 25.9 17.7 58 5.6 ESE 17 26 9 14 1010.5 - 0.0
01/11:00pm 26.3 26.4 19.2 65 4.6 ESE 17 24 9 13 1011.0 - 0.0
01/10:30pm 27.3 26.5 18.0 56 6.0 E 19 28 10 15 1011.7 - 0.0
01/10:00pm 28.6 27.0 16.5 48 7.7 ESE 20 28 11 15 1011.1 - 0.0
01/09:30pm 28.9 27.0 16.8 48 7.7 ESE 22 32 12 17 1010.8 - 0.0
01/09:00pm 29.3 26.9 16.5 46 8.1 ESE 24 35 13 19 1010.7 1007.6 0.0
01/08:30pm 29.7 28.3 16.5 45 8.4 SE 19 26 10 14 1010.8 - 0.0
01/08:00pm 29.9 28.4 16.7 45 8.4 SE 20 30 11 16 1010.5 - 0.0
01/07:30pm 30.4 28.9 16.8 44 8.7 SE 20 30 11 16 1010.2 - 0.0
01/07:00pm 31.0 29.1 16.6 42 9.2 SE 22 32 12 17 1009.6 - 0.0
01/06:30pm 31.4 29.1 16.6 41 9.5 SE 24 30 13 16 1009.3 - 0.0
01/06:00pm 31.9 30.4 16.2 38 10.0 SE 19 26 10 14 1009.1 1006.0 0.0
01/05:30pm 32.8 31.2 16.6 38 10.4 SE 20 30 11 16 1009.1 - 0.0
01/05:00pm 33.3 31.9 16.6 36 10.8 SE 19 32 10 17 1009.1 - 0.0
01/04:30pm 33.3 31.9 16.6 36 10.8 ESE 19 26 10 14 1009.2 - 0.0
01/04:00pm 33.3 31.9 16.6 36 10.8 SSE 19 28 10 15 1009.3 - 0.0
01/03:30pm 34.3 33.1 17.1 36 11.2 SE 19 30 10 16 1009.3 - 0.0
01/03:00pm 33.1 32.2 16.9 38 10.5 ESE 17 28 9 15 1009.5 1006.4 0.0
01/02:30pm 33.8 33.4 17.1 37 10.9 ESE 15 26 8 14 1009.8 - 0.0
01/02:00pm 34.0 33.2 17.2 36 10.9 E 17 32 9 17 1010.4 - 0.0
01/01:30pm 32.7 32.2 16.9 38 10.2 SE 15 26 8 14 1010.7 - 0.0
01/01:00pm 32.6 31.5 17.2 39 10.0 E 19 30 10 16 1011.2 - 0.0
01/12:30pm 32.4 31.5 17.8 41 9.5 SE 19 26 10 14 1011.7 - 0.0
01/12:00pm 31.0 30.1 17.7 45 8.6 SE 19 28 10 15 1012.1 1009.1 0.0
01/11:30am 29.9 29.4 17.7 48 7.9 ESE 17 30 9 16 1012.9 - 0.0
01/11:00am 29.1 28.4 17.3 49 7.6 SE 17 28 9 15 1013.4 - 0.0
01/10:30am 27.9 26.7 17.4 52 6.7 ESE 20 30 11 16 1013.9 - 0.0
01/10:00am 27.3 27.1 17.5 55 6.3 E 15 26 8 14 1014.6 - 0.0
01/09:30am 26.7 25.0 17.2 56 6.0 E 22 32 12 17 1014.4 - 0.0
01/09:00am 26.0 23.6 17.4 59 5.5 E 26 35 14 19 1014.4 1011.4 0.0
01/08:30am 25.2 22.7 17.1 60 5.1 ESE 26 35 14 19 1014.3 - 0.0
01/08:00am 24.5 21.7 17.2 63 4.6 ESE 28 39 15 21 1014.2 - 0.0
01/07:30am 24.1 21.0 17.4 66 4.2 ESE 30 37 16 20 1014.1 - 0.0
01/07:00am 22.8 19.6 17.3 71 3.5 ESE 30 39 16 21 1013.7 - 0.0
01/06:30am 22.3 20.8 17.7 75 2.9 ESE 22 32 12 17 1013.7 - 0.0
01/06:00am 21.8 20.3 17.6 77 2.6 SE 22 33 12 18 1013.4 1010.3 0.0
01/05:30am 21.7 19.7 17.5 77 2.6 SE 24 33 13 18 1012.7 - 0.0
01/05:00am 21.9 19.3 17.7 77 2.7 SE 28 37 15 20 1012.4 - 0.0
01/04:30am 22.2 20.0 17.8 76 2.8 ESE 26 37 14 20 1012.3 - 0.0
01/04:00am 22.5 20.0 18.1 76 2.8 SE 28 39 15 21 1012.1 - 0.0
01/03:30am 22.7 21.1 18.3 76 2.8 SE 24 37 13 20 1012.0 - 0.0
01/03:00am 23.0 20.2 18.3 75 3.0 SE 30 37 16 20 1011.9 1008.9 0.0
01/02:30am 23.2 20.9 18.5 75 3.0 SE 28 39 15 21 1012.1 - 0.0
01/02:00am 23.6 21.8 18.7 74 3.2 ESE 26 39 14 21 1012.1 - 0.0
01/01:30am 23.9 22.3 19.2 75 3.1 SE 26 37 14 20 1012.3 - 0.0
01/01:00am 24.3 22.4 19.4 74 3.2 ESE 28 39 15 21 1012.5 - 0.0
01/12:30am 24.6 24.6 20.1 76 3.0 ESE 20 35 11 19 1012.6 - 0.0
01/12:00am 24.8 23.2 20.1 75 3.1 SE 28 37 15 20 1012.7 1009.6 0.0
 
Date/Time
WST
Temp
°C
App
Temp
°C
Dew
Point
Rel
Hum
%
Delta-T
°C
Wind Press
QNH
hPa
Press
MSL
hPa
Rain
since 9 am
mm
Dir
 
Spd
km/h
Gust
km/h
Spd
kts
Gust
kts
28/11:30pm 25.1 24.3 20.1 74 3.3 SE 24 35 13 19 1012.9 - 0.0
28/11:00pm 25.5 23.9 20.1 72 3.6 SE 28 39 15 21 1013.1 - 0.0
28/10:30pm 25.6 24.1 20.2 72 3.6 SE 28 43 15 23 1012.7 - 0.0
28/10:00pm 25.6 23.7 20.2 72 3.6 SE 30 43 16 23 1013.0 - 0.0
28/09:30pm 25.9 24.9 20.5 72 3.6 SSE 26 35 14 19 1013.4 - 0.0
28/09:00pm 26.4 24.3 20.5 70 3.9 SSE 32 44 17 24 1013.3 1009.9 0.0
28/08:30pm 26.9 25.6 20.7 69 4.2 SSE 28 39 15 21 1013.1 - 0.0
28/08:00pm 27.3 26.7 20.6 67 4.5 SSE 24 39 13 21 1013.0 - 0.0
28/07:30pm 27.7 27.7 21.0 67 4.5 SSE 22 33 12 18 1012.5 - 0.0
28/07:00pm 28.0 27.8 21.3 67 4.5 SSE 24 37 13 20 1011.8 - 0.0
28/06:30pm 28.3 27.3 21.3 65 4.7 S 28 41 15 22 1011.0 - 0.0
28/06:00pm 29.6 29.0 21.3 61 5.7 S 26 37 14 20 1010.4 1006.9 0.0
28/05:30pm 30.5 29.5 21.3 58 6.3 S 28 37 15 20 1010.1 - 0.0
28/05:00pm 31.9 31.6 21.1 52 7.4 SSE 24 37 13 20 1009.6 - 0.0
28/04:30pm 33.1 32.6 19.9 45 8.9 SSE 22 30 12 16 1009.4 - 0.0
28/04:00pm 33.8 32.4 18.7 40 10.0 SSE 24 33 13 18 1009.6 - 0.0
28/03:30pm 34.1 32.6 18.6 40 10.3 S 24 32 13 17 1009.7 - 0.0
28/03:00pm 34.1 32.2 18.6 40 10.3 S 26 39 14 21 1009.7 1006.3 0.0
28/02:30pm 34.5 33.7 19.3 40 10.2 SE 22 35 12 19 1009.7 - 0.0
28/02:00pm 35.0 34.1 19.0 39 10.7 SSE 22 35 12 19 1009.8 - 0.0
28/01:30pm 34.1 33.8 18.2 39 10.5 S 17 30 9 16 1010.1 - 0.0
28/01:00pm 33.8 34.1 18.7 40 10.0 SSW 15 26 8 14 1010.5 - 0.0
28/12:30pm 34.0 34.0 18.9 41 10.1 S 17 28 9 15 1010.6 - 0.0
28/12:00pm 33.6 33.9 19.7 44 9.4 SSE 17 28 9 15 1010.8 1007.3 0.0
28/11:30am 32.5 31.8 18.3 43 9.3 S 19 26 10 14 1011.1 - 0.0
28/11:00am 32.0 33.8 21.8 54 7.0 SE 15 28 8 15 1011.4 - 0.0
28/10:30am 31.3 33.7 21.5 56 6.7 ESE 11 17 6 9 1011.8 - 0.0
28/10:00am 30.1 31.6 21.2 59 6.1 SE 15 20 8 11 1012.0 - 0.0
28/09:30am 28.9 31.0 20.9 62 5.4 SE 11 17 6 9 1012.0 - 0.0
28/09:00am 28.2 30.6 21.5 67 4.6 E 11 17 6 9 1011.8 1008.4 0.8
28/08:30am 27.7 28.5 21.3 68 4.3 ESE 19 20 10 11 1011.6 - 0.6
28/08:00am 27.1 29.0 21.4 71 3.9 SSE 13 20 7 11 1011.9 - 0.6
28/07:30am 25.6 28.0 21.5 78 2.8 S 11 17 6 9 1012.1 - 0.6
28/07:00am 24.4 28.1 23.2 93 0.8 SSW 9 17 5 9 1012.3 - 0.6
28/06:30am 23.8 28.0 23.5 98 0.2 SSE 7 11 4 6 1011.7 - 0.6
28/06:00am 24.0 27.5 23.5 97 0.3 SE 11 13 6 7 1011.3 1007.9 0.6
28/05:30am 25.0 27.0 22.3 85 1.8 S 15 20 8 11 1010.8 - 0.0
28/05:00am 25.1 25.6 22.0 83 2.1 SSE 22 28 12 15 1009.6 - 0.0
28/04:30am 25.4 26.3 21.9 81 2.4 SSE 20 28 11 15 1009.5 - 0.0
28/04:00am 26.5 26.1 21.7 75 3.3 S 26 37 14 20 1009.3 - 0.0
28/03:53am 26.8 25.9 21.5 72 3.6 S 28 43 15 23 1009.2 - 0.0
28/03:30am 27.0 28.3 21.7 73 3.6 S 17 24 9 13 1008.7 - 0.0
28/03:00am 27.3 29.5 21.8 72 3.7 SSW 13 17 7 9 1008.6 1005.1 0.0
28/02:30am 27.4 30.6 21.7 71 3.9 S 7 11 4 6 1008.1 - 0.0
28/02:00am 27.7 29.3 21.5 69 4.2 SSW 15 22 8 12 1008.1 - 0.0
28/01:30am 28.4 29.7 20.9 64 5.1 SSW 15 20 8 11 1007.9 - 0.0
28/01:00am 28.7 29.8 20.4 60 5.6 WSW 15 19 8 10 1007.3 - 0.0
28/12:30am 28.4 32.7 21.2 65 4.9 CALM 0 0 0 0 1007.5 - 0.0
28/12:00am 29.4 32.0 20.5 58 6.0 WSW 7 11 4 6 1008.3 1004.8 0.0
 
Date/Time
WST
Temp
°C
App
Temp
°C
Dew
Point
Rel
Hum
%
Delta-T
°C
Wind Press
QNH
hPa
Press
MSL
hPa
Rain
since 9 am
mm
Dir
 
Spd
km/h
Gust
km/h
Spd
kts
Gust
kts
27/11:30pm 29.5 31.0 20.6 58 6.0 W 13 17 7 9 1008.8 - 0.0
27/11:00pm 29.3 30.1 21.8 64 5.1 W 20 30 11 16 1009.0 - 0.0

Other Formats:

Comma delimited format used in spreadsheet applications
http://www.bom.gov.au/fwo/IDW60801/IDW60801.94457.axf

JavaScript Object Notation format (JSON) in row-major order
http://www.bom.gov.au/fwo/IDW60801/IDW60801.94457.json